Meteo Giornale » Osservazioni meteo Stati Uniti (USA) » Chicopee Falls-Westover

ore: 20:56 - Osservazioni Meteo Chicopee Falls-Westover
Lat. 42° 12' N Lon. 72° 32' W Alt. 75 metri s.l.m.

sereno America/New_York

14 °C

Sereno

Temp. 24 Ore

14 °C

23 °C

Nord

0 Km/h

Dew point 13 °C

Umidità 93 %

Visibilità  10 Km

Il sole sorge alle ore 06:33

Il sole tramonta alle ore 18:54

Data e Ora Cielo e Fenomeni T °C DP °C Um. % Pres. hPa Vis. km Vento km/h
Oggi h: 20:56 sereno Sereno 14 13 93 1022 10 N 0
Oggi h: 19:56 poco_nuvoloso Poco Nuvoloso 15 14 93 1022 10 N 5.5
Oggi h: 18:56 poco_nuvoloso Poco Nuvoloso 17 13 77 1021 10 N 0
Oggi h: 17:56 poco_nuvoloso Poco Nuvoloso 22 8 40 1021 10 N/NE 7.4
Oggi h: 16:56 poco_nuvoloso Poco Nuvoloso 23 7 35 1020 10 N/NE 7.4
Oggi h: 13:56 poco_nuvoloso Poco Nuvoloso 23 10 43 1021 10 N 9.3
Oggi h: 12:56 poco_nuvoloso Poco Nuvoloso 22 10 46 1021 10 N/NO 16.7
Oggi h: 11:56 poco_nuvoloso Poco Nuvoloso 21 10 49 1021 10 N 11.1
Oggi h: 10:56 poco_nuvoloso Poco Nuvoloso 20 10 52 1021 10 N 20.3
Oggi h: 09:56 poco_nuvoloso Poco Nuvoloso 19 9 52 1021 10 N 16.7
Oggi h: 07:56 poco_nuvoloso Poco Nuvoloso 15 11 76 1021 10 N/NE 7.4
Oggi h: 06:56 poco_nuvoloso Poco Nuvoloso 14 10 76 1020 10 N/NE 13
Oggi h: 05:56 sereno Sereno 14 11 82 1019 10 N 5.5
Oggi h: 04:56 sereno Sereno 15 11 76 1018 10 N 11.1
Oggi h: 03:56 sereno Sereno 17 12 72 1018 10 N/NE 9.3
Oggi h: 02:56 sereno Sereno 18 12 67 1017 10 N 13
Oggi h: 01:56 sereno Sereno 19 13 68 1017 10 N 13
Oggi h: 00:56 poco_nuvoloso Poco Nuvoloso 20 15 72 1017 10 N 20.3
Ieri h: 23:56 molto_nuvoloso Molto Nuvoloso 21 17 77 1017 10 N 14.8
Ieri h: 22:56 coperto Coperto 20 20 100 1016 10 N 11.1
Ieri h: 21:56 molto_nuvoloso Molto Nuvoloso 21 19 88 1016 10 N 0